sensor_id;sensor_type;location;lat;lon;timestamp;P1;durP1;ratioP1;P2;durP2;ratioP2
59960;SDS011;55902;-37.980;-63.602;2022-08-01T00:02:39;6.53;;;4.45;;
59960;SDS011;55902;-37.980;-63.602;2022-08-01T00:05:47;8.77;;;5.68;;
59960;SDS011;55902;-37.980;-63.602;2022-08-01T00:08:14;12.23;;;6.82;;
59960;SDS011;55902;-37.980;-63.602;2022-08-01T00:10:42;7.70;;;5.30;;
59960;SDS011;55902;-37.980;-63.602;2022-08-01T00:13:09;7.28;;;4.82;;
59960;SDS011;55902;-37.980;-63.602;2022-08-01T00:15:36;6.88;;;4.68;;
59960;SDS011;55902;-37.980;-63.602;2022-08-01T00:18:04;6.63;;;4.40;;
59960;SDS011;55902;-37.980;-63.602;2022-08-01T00:20:31;6.55;;;5.18;;
59960;SDS011;55902;-37.980;-63.602;2022-08-01T00:22:59;6.07;;;4.55;;
59960;SDS011;55902;-37.980;-63.602;2022-08-01T00:25:27;5.85;;;4.97;;
59960;SDS011;55902;-37.980;-63.602;2022-08-01T00:27:54;8.60;;;7.45;;
59960;SDS011;55902;-37.980;-63.602;2022-08-01T00:30:21;6.75;;;5.57;;
59960;SDS011;55902;-37.980;-63.602;2022-08-01T00:32:48;6.15;;;4.38;;
59960;SDS011;55902;-37.980;-63.602;2022-08-01T00:35:15;5.70;;;3.70;;
59960;SDS011;55902;-37.980;-63.602;2022-08-01T00:37:42;4.32;;;3.85;;
59960;SDS011;55902;-37.980;-63.602;2022-08-01T00:40:09;5.05;;;3.63;;
59960;SDS011;55902;-37.980;-63.602;2022-08-01T00:42:37;5.30;;;3.42;;
59960;SDS011;55902;-37.980;-63.602;2022-08-01T00:45:04;3.85;;;3.08;;
59960;SDS011;55902;-37.980;-63.602;2022-08-01T00:47:32;5.50;;;2.95;;
59960;SDS011;55902;-37.980;-63.602;2022-08-01T00:50:00;4.88;;;2.92;;
59960;SDS011;55902;-37.980;-63.602;2022-08-01T00:52:30;4.15;;;2.67;;
59960;SDS011;55902;-37.980;-63.602;2022-08-01T00:54:58;7.22;;;3.10;;
59960;SDS011;55902;-37.980;-63.602;2022-08-01T00:57:26;3.70;;;2.72;;
59960;SDS011;55902;-37.980;-63.602;2022-08-01T00:59:55;5.75;;;3.70;;
59960;SDS011;55902;-37.980;-63.602;2022-08-01T01:02:23;5.20;;;3.78;;
59960;SDS011;55902;-37.980;-63.602;2022-08-01T01:04:50;6.07;;;3.72;;
59960;SDS011;55902;-37.980;-63.602;2022-08-01T01:13:08;3.55;;;3.00;;
59960;SDS011;55902;-37.980;-63.602;2022-08-01T01:16:00;4.95;;;3.20;;
59960;SDS011;55902;-37.980;-63.602;2022-08-01T01:18:43;4.05;;;2.90;;
59960;SDS011;55902;-37.980;-63.602;2022-08-01T01:24:37;5.28;;;3.78;;
59960;SDS011;55902;-37.980;-63.602;2022-08-01T01:30:15;5.15;;;3.70;;
59960;SDS011;55902;-37.980;-63.602;2022-08-01T01:32:50;5.18;;;3.20;;
59960;SDS011;55902;-37.980;-63.602;2022-08-01T01:38:42;3.97;;;3.00;;
59960;SDS011;55902;-37.980;-63.602;2022-08-01T01:41:11;4.75;;;3.50;;
59960;SDS011;55902;-37.980;-63.602;2022-08-01T01:43:41;4.82;;;3.20;;
59960;SDS011;55902;-37.980;-63.602;2022-08-01T01:46:09;5.50;;;3.65;;
59960;SDS011;55902;-37.980;-63.602;2022-08-01T01:48:39;4.93;;;3.67;;
59960;SDS011;55902;-37.980;-63.602;2022-08-01T01:51:09;5.35;;;3.58;;
59960;SDS011;55902;-37.980;-63.602;2022-08-01T01:53:38;7.15;;;3.78;;
59960;SDS011;55902;-37.980;-63.602;2022-08-01T01:56:05;7.13;;;4.50;;
59960;SDS011;55902;-37.980;-63.602;2022-08-01T01:58:34;7.65;;;4.57;;
59960;SDS011;55902;-37.980;-63.602;2022-08-01T02:01:04;8.40;;;4.57;;
59960;SDS011;55902;-37.980;-63.602;2022-08-01T02:03:34;4.78;;;3.40;;
59960;SDS011;55902;-37.980;-63.602;2022-08-01T02:06:02;5.30;;;3.72;;
59960;SDS011;55902;-37.980;-63.602;2022-08-01T02:08:30;8.75;;;4.47;;
59960;SDS011;55902;-37.980;-63.602;2022-08-01T02:10:58;5.30;;;3.92;;
59960;SDS011;55902;-37.980;-63.602;2022-08-01T02:13:46;6.78;;;4.40;;
59960;SDS011;55902;-37.980;-63.602;2022-08-01T02:16:28;5.65;;;3.95;;
59960;SDS011;55902;-37.980;-63.602;2022-08-01T02:19:00;6.05;;;3.80;;
59960;SDS011;55902;-37.980;-63.602;2022-08-01T02:24:24;7.80;;;5.10;;
59960;SDS011;55902;-37.980;-63.602;2022-08-01T02:27:07;5.50;;;4.35;;
59960;SDS011;55902;-37.980;-63.602;2022-08-01T02:29:45;9.73;;;6.22;;
59960;SDS011;55902;-37.980;-63.602;2022-08-01T02:32:23;7.68;;;5.38;;
59960;SDS011;55902;-37.980;-63.602;2022-08-01T02:34:57;8.32;;;4.55;;
59960;SDS011;55902;-37.980;-63.602;2022-08-01T02:37:29;6.80;;;5.00;;
59960;SDS011;55902;-37.980;-63.602;2022-08-01T02:39:59;5.63;;;4.43;;
59960;SDS011;55902;-37.980;-63.602;2022-08-01T02:42:27;5.38;;;4.38;;
59960;SDS011;55902;-37.980;-63.602;2022-08-01T02:44:58;5.05;;;3.90;;
59960;SDS011;55902;-37.980;-63.602;2022-08-01T02:47:27;6.22;;;4.60;;
59960;SDS011;55902;-37.980;-63.602;2022-08-01T02:49:56;5.55;;;4.00;;
59960;SDS011;55902;-37.980;-63.602;2022-08-01T02:52:24;4.35;;;3.35;;
59960;SDS011;55902;-37.980;-63.602;2022-08-01T02:54:54;6.00;;;3.90;;
59960;SDS011;55902;-37.980;-63.602;2022-08-01T02:57:22;6.72;;;4.25;;
59960;SDS011;55902;-37.980;-63.602;2022-08-01T02:59:50;6.78;;;4.43;;
59960;SDS011;55902;-37.980;-63.602;2022-08-01T03:02:20;4.70;;;4.07;;
59960;SDS011;55902;-37.980;-63.602;2022-08-01T03:04:49;4.85;;;4.30;;
59960;SDS011;55902;-37.980;-63.602;2022-08-01T03:07:17;4.53;;;3.28;;
59960;SDS011;55902;-37.980;-63.602;2022-08-01T03:09:45;3.60;;;3.05;;
59960;SDS011;55902;-37.980;-63.602;2022-08-01T03:12:15;7.88;;;5.50;;
59960;SDS011;55902;-37.980;-63.602;2022-08-01T03:14:48;8.65;;;6.40;;
59960;SDS011;55902;-37.980;-63.602;2022-08-01T03:17:18;12.80;;;9.32;;
59960;SDS011;55902;-37.980;-63.602;2022-08-01T03:19:46;11.38;;;7.13;;
59960;SDS011;55902;-37.980;-63.602;2022-08-01T03:22:15;12.18;;;6.68;;
59960;SDS011;55902;-37.980;-63.602;2022-08-01T03:24:44;9.25;;;5.65;;
59960;SDS011;55902;-37.980;-63.602;2022-08-01T03:37:25;5.85;;;3.70;;
59960;SDS011;55902;-37.980;-63.602;2022-08-01T03:39:58;5.68;;;3.45;;
59960;SDS011;55902;-37.980;-63.602;2022-08-01T03:42:44;6.10;;;4.15;;
59960;SDS011;55902;-37.980;-63.602;2022-08-01T03:45:19;5.60;;;3.90;;
59960;SDS011;55902;-37.980;-63.602;2022-08-01T03:47:55;6.70;;;3.80;;
59960;SDS011;55902;-37.980;-63.602;2022-08-01T03:50:26;7.20;;;3.78;;
59960;SDS011;55902;-37.980;-63.602;2022-08-01T03:52:56;7.18;;;4.28;;
59960;SDS011;55902;-37.980;-63.602;2022-08-01T03:55:24;5.50;;;3.63;;
59960;SDS011;55902;-37.980;-63.602;2022-08-01T03:57:52;11.35;;;6.43;;
59960;SDS011;55902;-37.980;-63.602;2022-08-01T04:00:19;8.18;;;5.18;;
59960;SDS011;55902;-37.980;-63.602;2022-08-01T04:02:47;7.90;;;4.40;;
59960;SDS011;55902;-37.980;-63.602;2022-08-01T04:05:15;8.55;;;4.80;;
59960;SDS011;55902;-37.980;-63.602;2022-08-01T04:11:04;10.45;;;5.40;;
59960;SDS011;55902;-37.980;-63.602;2022-08-01T04:13:33;7.05;;;4.38;;
59960;SDS011;55902;-37.980;-63.602;2022-08-01T04:16:00;8.10;;;4.70;;
59960;SDS011;55902;-37.980;-63.602;2022-08-01T04:18:26;9.25;;;5.40;;
59960;SDS011;55902;-37.980;-63.602;2022-08-01T04:20:53;6.82;;;4.30;;
59960;SDS011;55902;-37.980;-63.602;2022-08-01T04:23:21;7.43;;;4.63;;
59960;SDS011;55902;-37.980;-63.602;2022-08-01T04:25:50;11.98;;;5.50;;
59960;SDS011;55902;-37.980;-63.602;2022-08-01T04:28:18;10.05;;;5.47;;
59960;SDS011;55902;-37.980;-63.602;2022-08-01T04:30:47;7.38;;;4.50;;
59960;SDS011;55902;-37.980;-63.602;2022-08-01T04:33:20;6.20;;;4.30;;
59960;SDS011;55902;-37.980;-63.602;2022-08-01T04:36:35;8.88;;;5.55;;
59960;SDS011;55902;-37.980;-63.602;2022-08-01T04:39:24;9.13;;;5.57;;
59960;SDS011;55902;-37.980;-63.602;2022-08-01T04:41:58;10.18;;;5.47;;
59960;SDS011;55902;-37.980;-63.602;2022-08-01T04:44:29;10.98;;;5.80;;
59960;SDS011;55902;-37.980;-63.602;2022-08-01T04:47:00;9.88;;;5.53;;
59960;SDS011;55902;-37.980;-63.602;2022-08-01T04:49:31;11.93;;;7.07;;
59960;SDS011;55902;-37.980;-63.602;2022-08-01T04:52:00;12.90;;;6.50;;
59960;SDS011;55902;-37.980;-63.602;2022-08-01T04:54:27;13.50;;;7.65;;
59960;SDS011;55902;-37.980;-63.602;2022-08-01T04:56:56;15.10;;;8.15;;
59960;SDS011;55902;-37.980;-63.602;2022-08-01T04:59:26;19.80;;;9.27;;
59960;SDS011;55902;-37.980;-63.602;2022-08-01T05:02:09;15.23;;;9.30;;
59960;SDS011;55902;-37.980;-63.602;2022-08-01T05:04:37;18.45;;;10.15;;
59960;SDS011;55902;-37.980;-63.602;2022-08-01T05:07:06;11.07;;;7.22;;
59960;SDS011;55902;-37.980;-63.602;2022-08-01T05:09:33;10.70;;;7.32;;
59960;SDS011;55902;-37.980;-63.602;2022-08-01T05:15:25;10.13;;;7.38;;
59960;SDS011;55902;-37.980;-63.602;2022-08-01T05:17:53;12.88;;;8.35;;
59960;SDS011;55902;-37.980;-63.602;2022-08-01T05:20:21;12.43;;;8.32;;
59960;SDS011;55902;-37.980;-63.602;2022-08-01T05:33:52;8.85;;;7.05;;
59960;SDS011;55902;-37.980;-63.602;2022-08-01T05:36:20;12.77;;;9.02;;
59960;SDS011;55902;-37.980;-63.602;2022-08-01T05:38:46;17.58;;;9.93;;
59960;SDS011;55902;-37.980;-63.602;2022-08-01T05:41:13;10.70;;;8.10;;
59960;SDS011;55902;-37.980;-63.602;2022-08-01T05:43:40;12.10;;;8.65;;
59960;SDS011;55902;-37.980;-63.602;2022-08-01T05:46:07;9.35;;;7.72;;
59960;SDS011;55902;-37.980;-63.602;2022-08-01T05:48:34;10.45;;;7.88;;
59960;SDS011;55902;-37.980;-63.602;2022-08-01T05:51:01;9.60;;;7.47;;
59960;SDS011;55902;-37.980;-63.602;2022-08-01T05:53:28;13.02;;;8.40;;
59960;SDS011;55902;-37.980;-63.602;2022-08-01T05:55:55;9.07;;;7.32;;
59960;SDS011;55902;-37.980;-63.602;2022-08-01T05:58:22;8.38;;;7.00;;
59960;SDS011;55902;-37.980;-63.602;2022-08-01T06:00:49;8.48;;;6.68;;
59960;SDS011;55902;-37.980;-63.602;2022-08-01T06:03:16;10.23;;;7.72;;
59960;SDS011;55902;-37.980;-63.602;2022-08-01T06:05:43;11.73;;;7.72;;
59960;SDS011;55902;-37.980;-63.602;2022-08-01T06:08:10;9.32;;;7.13;;
59960;SDS011;55902;-37.980;-63.602;2022-08-01T06:10:37;7.60;;;6.18;;
59960;SDS011;55902;-37.980;-63.602;2022-08-01T06:13:04;13.70;;;7.57;;
59960;SDS011;55902;-37.980;-63.602;2022-08-01T06:15:31;11.43;;;7.55;;
59960;SDS011;55902;-37.980;-63.602;2022-08-01T06:17:59;8.93;;;7.10;;
59960;SDS011;55902;-37.980;-63.602;2022-08-01T06:20:26;8.00;;;6.50;;
59960;SDS011;55902;-37.980;-63.602;2022-08-01T06:32:58;6.10;;;5.22;;
59960;SDS011;55902;-37.980;-63.602;2022-08-01T06:35:26;7.45;;;5.85;;
59960;SDS011;55902;-37.980;-63.602;2022-08-01T06:37:55;8.68;;;6.47;;
59960;SDS011;55902;-37.980;-63.602;2022-08-01T06:40:23;7.20;;;6.00;;
59960;SDS011;55902;-37.980;-63.602;2022-08-01T06:42:50;6.38;;;5.78;;
59960;SDS011;55902;-37.980;-63.602;2022-08-01T06:45:16;10.85;;;6.93;;
59960;SDS011;55902;-37.980;-63.602;2022-08-01T06:47:44;7.47;;;6.15;;
59960;SDS011;55902;-37.980;-63.602;2022-08-01T06:50:11;10.82;;;7.90;;
59960;SDS011;55902;-37.980;-63.602;2022-08-01T06:52:40;10.23;;;7.05;;
59960;SDS011;55902;-37.980;-63.602;2022-08-01T06:55:07;7.03;;;5.57;;
59960;SDS011;55902;-37.980;-63.602;2022-08-01T06:57:35;13.20;;;8.35;;
59960;SDS011;55902;-37.980;-63.602;2022-08-01T07:00:05;11.02;;;6.53;;
59960;SDS011;55902;-37.980;-63.602;2022-08-01T07:02:36;9.35;;;6.78;;
59960;SDS011;55902;-37.980;-63.602;2022-08-01T07:05:03;9.00;;;7.22;;
59960;SDS011;55902;-37.980;-63.602;2022-08-01T07:07:30;11.82;;;7.60;;
59960;SDS011;55902;-37.980;-63.602;2022-08-01T07:09:57;6.22;;;5.63;;
59960;SDS011;55902;-37.980;-63.602;2022-08-01T07:12:24;10.90;;;6.20;;
59960;SDS011;55902;-37.980;-63.602;2022-08-01T07:24:57;6.13;;;5.53;;
59960;SDS011;55902;-37.980;-63.602;2022-08-01T07:27:24;6.03;;;5.28;;
59960;SDS011;55902;-37.980;-63.602;2022-08-01T07:29:51;5.88;;;5.00;;
59960;SDS011;55902;-37.980;-63.602;2022-08-01T07:32:17;5.13;;;4.50;;
59960;SDS011;55902;-37.980;-63.602;2022-08-01T07:34:44;5.85;;;4.97;;
59960;SDS011;55902;-37.980;-63.602;2022-08-01T07:37:11;4.88;;;4.38;;
59960;SDS011;55902;-37.980;-63.602;2022-08-01T07:39:38;7.53;;;6.18;;
59960;SDS011;55902;-37.980;-63.602;2022-08-01T07:42:05;5.25;;;4.60;;
59960;SDS011;55902;-37.980;-63.602;2022-08-01T07:44:32;6.10;;;5.32;;
59960;SDS011;55902;-37.980;-63.602;2022-08-01T07:46:59;6.30;;;4.97;;
59960;SDS011;55902;-37.980;-63.602;2022-08-01T07:49:26;5.72;;;4.90;;
59960;SDS011;55902;-37.980;-63.602;2022-08-01T07:51:56;5.07;;;4.50;;
59960;SDS011;55902;-37.980;-63.602;2022-08-01T07:54:22;5.40;;;4.40;;
59960;SDS011;55902;-37.980;-63.602;2022-08-01T07:56:50;4.40;;;3.90;;
59960;SDS011;55902;-37.980;-63.602;2022-08-01T07:59:17;4.05;;;3.63;;
59960;SDS011;55902;-37.980;-63.602;2022-08-01T08:01:48;4.80;;;4.30;;
59960;SDS011;55902;-37.980;-63.602;2022-08-01T08:04:16;4.32;;;3.92;;
59960;SDS011;55902;-37.980;-63.602;2022-08-01T08:06:43;5.63;;;4.30;;
59960;SDS011;55902;-37.980;-63.602;2022-08-01T08:09:13;6.30;;;4.60;;
59960;SDS011;55902;-37.980;-63.602;2022-08-01T08:11:41;5.57;;;4.35;;
59960;SDS011;55902;-37.980;-63.602;2022-08-01T08:14:09;3.88;;;3.47;;
59960;SDS011;55902;-37.980;-63.602;2022-08-01T08:16:36;4.40;;;3.97;;
59960;SDS011;55902;-37.980;-63.602;2022-08-01T08:19:03;6.25;;;5.00;;
59960;SDS011;55902;-37.980;-63.602;2022-08-01T08:21:30;4.32;;;3.78;;
59960;SDS011;55902;-37.980;-63.602;2022-08-01T08:23:57;4.03;;;3.63;;
59960;SDS011;55902;-37.980;-63.602;2022-08-01T08:26:42;4.40;;;4.00;;
59960;SDS011;55902;-37.980;-63.602;2022-08-01T08:29:09;4.90;;;4.35;;
59960;SDS011;55902;-37.980;-63.602;2022-08-01T08:31:36;5.78;;;4.30;;
59960;SDS011;55902;-37.980;-63.602;2022-08-01T08:34:03;5.03;;;4.53;;
59960;SDS011;55902;-37.980;-63.602;2022-08-01T08:36:30;5.90;;;5.18;;
59960;SDS011;55902;-37.980;-63.602;2022-08-01T08:39:00;4.97;;;4.40;;
59960;SDS011;55902;-37.980;-63.602;2022-08-01T08:41:30;5.95;;;5.18;;
59960;SDS011;55902;-37.980;-63.602;2022-08-01T08:44:00;12.07;;;5.57;;
59960;SDS011;55902;-37.980;-63.602;2022-08-01T08:46:28;6.10;;;5.00;;
59960;SDS011;55902;-37.980;-63.602;2022-08-01T08:48:58;5.65;;;4.60;;
59960;SDS011;55902;-37.980;-63.602;2022-08-01T08:51:27;14.13;;;6.15;;
59960;SDS011;55902;-37.980;-63.602;2022-08-01T08:53:56;8.10;;;4.93;;
59960;SDS011;55902;-37.980;-63.602;2022-08-01T08:56:24;5.70;;;5.10;;
59960;SDS011;55902;-37.980;-63.602;2022-08-01T08:58:52;14.85;;;6.03;;
59960;SDS011;55902;-37.980;-63.602;2022-08-01T09:01:19;7.05;;;5.05;;
59960;SDS011;55902;-37.980;-63.602;2022-08-01T09:03:46;5.50;;;4.20;;
59960;SDS011;55902;-37.980;-63.602;2022-08-01T09:06:13;6.28;;;5.30;;
59960;SDS011;55902;-37.980;-63.602;2022-08-01T09:08:40;4.82;;;4.28;;
59960;SDS011;55902;-37.980;-63.602;2022-08-01T09:11:07;4.30;;;3.90;;
59960;SDS011;55902;-37.980;-63.602;2022-08-01T09:13:34;8.63;;;5.18;;
59960;SDS011;55902;-37.980;-63.602;2022-08-01T09:16:01;5.40;;;4.65;;
59960;SDS011;55902;-37.980;-63.602;2022-08-01T09:23:33;5.60;;;4.88;;
59960;SDS011;55902;-37.980;-63.602;2022-08-01T09:26:14;5.25;;;4.20;;
59960;SDS011;55902;-37.980;-63.602;2022-08-01T09:28:43;4.90;;;4.40;;
59960;SDS011;55902;-37.980;-63.602;2022-08-01T09:31:11;4.93;;;4.43;;
59960;SDS011;55902;-37.980;-63.602;2022-08-01T09:36:43;5.05;;;4.55;;
59960;SDS011;55902;-37.980;-63.602;2022-08-01T09:39:27;5.40;;;4.72;;
59960;SDS011;55902;-37.980;-63.602;2022-08-01T09:41:56;5.55;;;4.75;;
59960;SDS011;55902;-37.980;-63.602;2022-08-01T09:44:43;6.03;;;4.85;;
59960;SDS011;55902;-37.980;-63.602;2022-08-01T09:47:12;4.85;;;4.35;;
59960;SDS011;55902;-37.980;-63.602;2022-08-01T09:49:40;7.65;;;4.68;;
59960;SDS011;55902;-37.980;-63.602;2022-08-01T09:52:14;4.80;;;4.15;;
59960;SDS011;55902;-37.980;-63.602;2022-08-01T09:54:44;5.78;;;3.97;;
59960;SDS011;55902;-37.980;-63.602;2022-08-01T09:57:25;4.28;;;3.80;;
59960;SDS011;55902;-37.980;-63.602;2022-08-01T09:59:53;4.65;;;3.90;;
59960;SDS011;55902;-37.980;-63.602;2022-08-01T10:02:34;6.05;;;4.70;;
59960;SDS011;55902;-37.980;-63.602;2022-08-01T10:05:09;4.70;;;4.20;;
59960;SDS011;55902;-37.980;-63.602;2022-08-01T10:07:54;5.00;;;4.50;;
59960;SDS011;55902;-37.980;-63.602;2022-08-01T10:10:23;8.27;;;4.38;;
59960;SDS011;55902;-37.980;-63.602;2022-08-01T10:12:51;4.45;;;4.05;;
59960;SDS011;55902;-37.980;-63.602;2022-08-01T10:15:20;5.15;;;4.20;;
59960;SDS011;55902;-37.980;-63.602;2022-08-01T10:17:54;6.47;;;5.20;;
59960;SDS011;55902;-37.980;-63.602;2022-08-01T10:20:32;4.10;;;3.70;;
59960;SDS011;55902;-37.980;-63.602;2022-08-01T10:23:01;5.63;;;4.97;;
59960;SDS011;55902;-37.980;-63.602;2022-08-01T10:25:33;7.25;;;6.03;;
59960;SDS011;55902;-37.980;-63.602;2022-08-01T10:28:06;5.50;;;5.00;;
59960;SDS011;55902;-37.980;-63.602;2022-08-01T10:30:42;5.32;;;4.43;;
59960;SDS011;55902;-37.980;-63.602;2022-08-01T10:33:10;5.43;;;4.68;;
59960;SDS011;55902;-37.980;-63.602;2022-08-01T10:35:38;14.25;;;9.20;;
59960;SDS011;55902;-37.980;-63.602;2022-08-01T10:38:05;7.63;;;6.53;;
59960;SDS011;55902;-37.980;-63.602;2022-08-01T10:40:33;9.25;;;6.90;;
59960;SDS011;55902;-37.980;-63.602;2022-08-01T10:43:01;6.20;;;5.50;;
59960;SDS011;55902;-37.980;-63.602;2022-08-01T10:45:29;4.70;;;4.20;;
59960;SDS011;55902;-37.980;-63.602;2022-08-01T10:48:16;11.77;;;5.07;;
59960;SDS011;55902;-37.980;-63.602;2022-08-01T10:50:54;4.90;;;3.80;;
59960;SDS011;55902;-37.980;-63.602;2022-08-01T10:53:24;4.10;;;3.70;;
59960;SDS011;55902;-37.980;-63.602;2022-08-01T10:58:23;3.40;;;3.10;;
59960;SDS011;55902;-37.980;-63.602;2022-08-01T11:03:40;4.43;;;3.30;;
59960;SDS011;55902;-37.980;-63.602;2022-08-01T11:06:17;4.07;;;3.33;;
59960;SDS011;55902;-37.980;-63.602;2022-08-01T11:08:53;3.75;;;3.30;;
59960;SDS011;55902;-37.980;-63.602;2022-08-01T11:11:20;3.50;;;3.20;;
59960;SDS011;55902;-37.980;-63.602;2022-08-01T11:16:35;4.72;;;3.83;;
59960;SDS011;55902;-37.980;-63.602;2022-08-01T11:19:04;4.20;;;3.65;;
59960;SDS011;55902;-37.980;-63.602;2022-08-01T11:30:00;4.63;;;3.63;;
59960;SDS011;55902;-37.980;-63.602;2022-08-01T11:32:46;5.25;;;4.28;;
59960;SDS011;55902;-37.980;-63.602;2022-08-01T11:35:17;4.45;;;4.00;;
59960;SDS011;55902;-37.980;-63.602;2022-08-01T11:37:54;4.35;;;3.67;;
59960;SDS011;55902;-37.980;-63.602;2022-08-01T11:42:50;4.25;;;3.72;;
59960;SDS011;55902;-37.980;-63.602;2022-08-01T11:45:49;4.60;;;4.07;;
59960;SDS011;55902;-37.980;-63.602;2022-08-01T11:48:21;6.70;;;5.20;;
59960;SDS011;55902;-37.980;-63.602;2022-08-01T11:50:52;6.85;;;5.38;;
59960;SDS011;55902;-37.980;-63.602;2022-08-01T11:53:21;4.65;;;4.15;;
59960;SDS011;55902;-37.980;-63.602;2022-08-01T11:55:49;9.82;;;6.65;;
59960;SDS011;55902;-37.980;-63.602;2022-08-01T11:58:22;5.40;;;4.90;;
59960;SDS011;55902;-37.980;-63.602;2022-08-01T12:00:54;4.50;;;4.10;;
59960;SDS011;55902;-37.980;-63.602;2022-08-01T12:03:27;5.43;;;3.85;;
59960;SDS011;55902;-37.980;-63.602;2022-08-01T12:05:58;4.18;;;3.72;;
59960;SDS011;55902;-37.980;-63.602;2022-08-01T12:08:32;3.92;;;3.58;;
59960;SDS011;55902;-37.980;-63.602;2022-08-01T12:11:19;4.72;;;3.95;;
59960;SDS011;55902;-37.980;-63.602;2022-08-01T12:13:46;5.43;;;4.25;;
59960;SDS011;55902;-37.980;-63.602;2022-08-01T12:16:16;6.13;;;4.70;;
59960;SDS011;55902;-37.980;-63.602;2022-08-01T12:18:46;6.05;;;4.43;;
59960;SDS011;55902;-37.980;-63.602;2022-08-01T12:21:13;6.60;;;4.63;;
59960;SDS011;55902;-37.980;-63.602;2022-08-01T12:23:41;5.40;;;3.70;;
59960;SDS011;55902;-37.980;-63.602;2022-08-01T12:26:07;4.80;;;4.00;;
59960;SDS011;55902;-37.980;-63.602;2022-08-01T12:28:40;3.30;;;3.00;;
59960;SDS011;55902;-37.980;-63.602;2022-08-01T12:31:08;5.63;;;3.60;;
59960;SDS011;55902;-37.980;-63.602;2022-08-01T12:33:35;4.60;;;3.70;;
59960;SDS011;55902;-37.980;-63.602;2022-08-01T12:42:28;3.40;;;3.10;;
59960;SDS011;55902;-37.980;-63.602;2022-08-01T12:44:55;16.00;;;4.57;;
59960;SDS011;55902;-37.980;-63.602;2022-08-01T12:47:22;6.78;;;3.97;;
59960;SDS011;55902;-37.980;-63.602;2022-08-01T12:49:50;4.63;;;3.60;;
59960;SDS011;55902;-37.980;-63.602;2022-08-01T12:52:17;3.50;;;3.20;;
59960;SDS011;55902;-37.980;-63.602;2022-08-01T13:07:57;3.58;;;3.20;;
59960;SDS011;55902;-37.980;-63.602;2022-08-01T13:10:26;3.40;;;3.10;;
59960;SDS011;55902;-37.980;-63.602;2022-08-01T13:12:57;4.05;;;3.47;;
59960;SDS011;55902;-37.980;-63.602;2022-08-01T13:15:25;6.03;;;3.95;;
59960;SDS011;55902;-37.980;-63.602;2022-08-01T13:17:58;12.55;;;5.03;;
59960;SDS011;55902;-37.980;-63.602;2022-08-01T13:20:31;4.78;;;4.28;;
59960;SDS011;55902;-37.980;-63.602;2022-08-01T13:25:50;4.20;;;3.50;;
59960;SDS011;55902;-37.980;-63.602;2022-08-01T13:28:26;4.32;;;3.42;;
59960;SDS011;55902;-37.980;-63.602;2022-08-01T13:30:57;8.60;;;3.90;;
59960;SDS011;55902;-37.980;-63.602;2022-08-01T13:33:44;5.00;;;3.53;;
59960;SDS011;55902;-37.980;-63.602;2022-08-01T13:36:18;4.97;;;3.90;;
59960;SDS011;55902;-37.980;-63.602;2022-08-01T13:39:05;4.15;;;3.35;;
59960;SDS011;55902;-37.980;-63.602;2022-08-01T13:41:51;9.50;;;4.10;;
59960;SDS011;55902;-37.980;-63.602;2022-08-01T13:44:18;5.53;;;4.18;;
59960;SDS011;55902;-37.980;-63.602;2022-08-01T13:46:45;3.70;;;3.30;;
59960;SDS011;55902;-37.980;-63.602;2022-08-01T13:49:15;4.53;;;3.97;;
59960;SDS011;55902;-37.980;-63.602;2022-08-01T13:51:42;5.20;;;3.95;;
59960;SDS011;55902;-37.980;-63.602;2022-08-01T13:54:11;5.88;;;4.30;;
59960;SDS011;55902;-37.980;-63.602;2022-08-01T13:56:38;4.82;;;3.72;;
59960;SDS011;55902;-37.980;-63.602;2022-08-01T13:59:04;5.32;;;4.15;;
59960;SDS011;55902;-37.980;-63.602;2022-08-01T14:01:32;6.28;;;4.43;;
59960;SDS011;55902;-37.980;-63.602;2022-08-01T14:03:59;5.43;;;4.57;;
59960;SDS011;55902;-37.980;-63.602;2022-08-01T14:06:28;5.95;;;4.88;;
59960;SDS011;55902;-37.980;-63.602;2022-08-01T14:08:54;5.00;;;4.40;;
59960;SDS011;55902;-37.980;-63.602;2022-08-01T14:11:22;7.15;;;5.25;;
59960;SDS011;55902;-37.980;-63.602;2022-08-01T14:13:52;5.75;;;4.72;;
59960;SDS011;55902;-37.980;-63.602;2022-08-01T14:16:19;6.38;;;4.78;;
59960;SDS011;55902;-37.980;-63.602;2022-08-01T14:18:46;6.43;;;4.80;;
59960;SDS011;55902;-37.980;-63.602;2022-08-01T14:21:13;6.50;;;5.40;;
59960;SDS011;55902;-37.980;-63.602;2022-08-01T14:23:40;6.57;;;5.10;;
59960;SDS011;55902;-37.980;-63.602;2022-08-01T14:26:10;8.07;;;5.28;;
59960;SDS011;55902;-37.980;-63.602;2022-08-01T14:28:38;6.65;;;5.05;;
59960;SDS011;55902;-37.980;-63.602;2022-08-01T14:31:05;7.93;;;5.38;;
59960;SDS011;55902;-37.980;-63.602;2022-08-01T14:33:33;6.60;;;5.53;;
59960;SDS011;55902;-37.980;-63.602;2022-08-01T14:36:00;8.90;;;6.20;;
59960;SDS011;55902;-37.980;-63.602;2022-08-01T14:38:30;6.50;;;4.90;;
59960;SDS011;55902;-37.980;-63.602;2022-08-01T14:40:58;5.07;;;4.03;;
59960;SDS011;55902;-37.980;-63.602;2022-08-01T14:43:26;6.10;;;4.82;;
59960;SDS011;55902;-37.980;-63.602;2022-08-01T14:45:57;8.52;;;6.03;;
59960;SDS011;55902;-37.980;-63.602;2022-08-01T14:48:24;9.60;;;6.10;;
59960;SDS011;55902;-37.980;-63.602;2022-08-01T14:50:51;6.40;;;5.38;;
59960;SDS011;55902;-37.980;-63.602;2022-08-01T14:53:18;6.82;;;5.00;;
59960;SDS011;55902;-37.980;-63.602;2022-08-01T14:55:50;7.35;;;5.47;;
59960;SDS011;55902;-37.980;-63.602;2022-08-01T14:58:17;5.90;;;4.63;;
59960;SDS011;55902;-37.980;-63.602;2022-08-01T15:00:44;7.38;;;5.72;;
59960;SDS011;55902;-37.980;-63.602;2022-08-01T15:03:13;7.38;;;5.47;;
59960;SDS011;55902;-37.980;-63.602;2022-08-01T15:05:40;7.53;;;5.05;;
59960;SDS011;55902;-37.980;-63.602;2022-08-01T15:08:07;7.25;;;6.00;;
59960;SDS011;55902;-37.980;-63.602;2022-08-01T15:10:34;8.55;;;6.18;;
59960;SDS011;55902;-37.980;-63.602;2022-08-01T15:13:01;6.38;;;5.25;;
59960;SDS011;55902;-37.980;-63.602;2022-08-01T15:15:28;5.35;;;4.40;;
59960;SDS011;55902;-37.980;-63.602;2022-08-01T15:17:55;5.28;;;4.10;;
59960;SDS011;55902;-37.980;-63.602;2022-08-01T15:20:22;9.52;;;6.00;;
59960;SDS011;55902;-37.980;-63.602;2022-08-01T15:22:50;5.97;;;5.00;;
59960;SDS011;55902;-37.980;-63.602;2022-08-01T15:25:18;7.13;;;4.78;;
59960;SDS011;55902;-37.980;-63.602;2022-08-01T15:27:45;5.25;;;4.25;;
59960;SDS011;55902;-37.980;-63.602;2022-08-01T15:30:12;5.68;;;4.90;;
59960;SDS011;55902;-37.980;-63.602;2022-08-01T15:32:40;6.70;;;5.45;;
59960;SDS011;55902;-37.980;-63.602;2022-08-01T15:35:07;6.85;;;5.47;;
59960;SDS011;55902;-37.980;-63.602;2022-08-01T15:37:35;7.93;;;5.45;;
59960;SDS011;55902;-37.980;-63.602;2022-08-01T15:40:02;7.90;;;6.10;;
59960;SDS011;55902;-37.980;-63.602;2022-08-01T15:42:30;6.05;;;4.35;;
59960;SDS011;55902;-37.980;-63.602;2022-08-01T15:44:57;6.40;;;4.80;;
59960;SDS011;55902;-37.980;-63.602;2022-08-01T15:47:25;6.72;;;3.90;;
59960;SDS011;55902;-37.980;-63.602;2022-08-01T15:49:52;5.43;;;4.72;;
59960;SDS011;55902;-37.980;-63.602;2022-08-01T15:52:21;8.23;;;6.47;;
59960;SDS011;55902;-37.980;-63.602;2022-08-01T15:54:48;6.95;;;5.13;;
59960;SDS011;55902;-37.980;-63.602;2022-08-01T15:57:15;6.97;;;5.43;;
59960;SDS011;55902;-37.980;-63.602;2022-08-01T15:59:42;6.20;;;4.43;;
59960;SDS011;55902;-37.980;-63.602;2022-08-01T16:02:14;5.03;;;4.20;;
59960;SDS011;55902;-37.980;-63.602;2022-08-01T16:04:42;5.03;;;4.05;;
59960;SDS011;55902;-37.980;-63.602;2022-08-01T16:07:09;5.28;;;3.70;;
59960;SDS011;55902;-37.980;-63.602;2022-08-01T16:09:37;3.95;;;3.42;;
59960;SDS011;55902;-37.980;-63.602;2022-08-01T16:12:04;7.72;;;6.03;;
59960;SDS011;55902;-37.980;-63.602;2022-08-01T16:14:31;5.95;;;4.07;;
59960;SDS011;55902;-37.980;-63.602;2022-08-01T16:16:58;4.70;;;3.88;;
59960;SDS011;55902;-37.980;-63.602;2022-08-01T16:19:25;4.78;;;4.28;;